Deepwater, New Jersey
Current Conditions -  °F | °C
As of 4:51 PM on Tuesday 25 Nov 2014 (Local Time) from KILG Reporting Station
Clear Clear  
Wind Chill: 11°   Ceiling: Unl
Heat Index: 11°   Visibility: 10mi
Dew Point: -1°   Wind: 0mph
Humidity: 43%   Direction: NA
Pressure: 30.06"   Gusts: NA
Location:  39.68°N, 75.49°W
Report Text: KILG 252151Z 00000KT 10SM CLR 11/M01 A3006 RMK AO2 SLP179 T01111011
Loading
Personal Weather Stations






























Interactive Weather Map New forecast layout! Learn more

10-Day Weather Forecast

Advertisements
Track Severe Weather on mobile